sensor_id;sensor_type;location;lat;lon;timestamp;temperature;humidity
20680;DHT22;10499;47.494;7.608;2022-09-20T00:01:24;10.10;94.00
20680;DHT22;10499;47.494;7.608;2022-09-20T00:03:53;10.10;94.20
20680;DHT22;10499;47.494;7.608;2022-09-20T00:06:21;10.00;94.30
20680;DHT22;10499;47.494;7.608;2022-09-20T00:08:47;9.90;94.30
20680;DHT22;10499;47.494;7.608;2022-09-20T00:11:16;9.90;94.50
20680;DHT22;10499;47.494;7.608;2022-09-20T00:13:44;9.90;94.70
20680;DHT22;10499;47.494;7.608;2022-09-20T00:16:16;9.90;94.90
20680;DHT22;10499;47.494;7.608;2022-09-20T00:18:41;9.90;94.90
20680;DHT22;10499;47.494;7.608;2022-09-20T00:21:17;9.80;94.90
20680;DHT22;10499;47.494;7.608;2022-09-20T00:23:43;9.80;94.90
20680;DHT22;10499;47.494;7.608;2022-09-20T00:26:09;9.80;95.00
20680;DHT22;10499;47.494;7.608;2022-09-20T00:28:35;9.80;95.00
20680;DHT22;10499;47.494;7.608;2022-09-20T00:31:01;9.80;95.10
20680;DHT22;10499;47.494;7.608;2022-09-20T00:33:26;9.70;95.10
20680;DHT22;10499;47.494;7.608;2022-09-20T00:36:10;9.70;95.20
20680;DHT22;10499;47.494;7.608;2022-09-20T00:38:36;9.60;95.50
20680;DHT22;10499;47.494;7.608;2022-09-20T00:41:02;9.60;96.30
20680;DHT22;10499;47.494;7.608;2022-09-20T00:46:02;9.50;97.90
20680;DHT22;10499;47.494;7.608;2022-09-20T00:48:29;9.50;98.80
20680;DHT22;10499;47.494;7.608;2022-09-20T00:51:06;9.40;99.90
20680;DHT22;10499;47.494;7.608;2022-09-20T00:53:41;9.40;99.90
20680;DHT22;10499;47.494;7.608;2022-09-20T00:56:12;9.30;99.90
20680;DHT22;10499;47.494;7.608;2022-09-20T00:58:44;9.30;99.90
20680;DHT22;10499;47.494;7.608;2022-09-20T01:01:11;9.40;99.90
20680;DHT22;10499;47.494;7.608;2022-09-20T01:03:38;9.40;99.90
20680;DHT22;10499;47.494;7.608;2022-09-20T01:06:10;9.30;99.90
20680;DHT22;10499;47.494;7.608;2022-09-20T01:11:03;9.20;99.90
20680;DHT22;10499;47.494;7.608;2022-09-20T01:13:29;9.10;99.90
20680;DHT22;10499;47.494;7.608;2022-09-20T01:15:56;9.10;99.90
20680;DHT22;10499;47.494;7.608;2022-09-20T01:18:26;9.00;99.90
20680;DHT22;10499;47.494;7.608;2022-09-20T01:20:52;9.00;99.90
20680;DHT22;10499;47.494;7.608;2022-09-20T01:36:34;8.90;99.90
20680;DHT22;10499;47.494;7.608;2022-09-20T01:41:50;8.80;99.90
20680;DHT22;10499;47.494;7.608;2022-09-20T01:47:31;8.70;99.90
20680;DHT22;10499;47.494;7.608;2022-09-20T01:52:50;8.70;99.90
20680;DHT22;10499;47.494;7.608;2022-09-20T02:11:50;8.40;99.90
20680;DHT22;10499;47.494;7.608;2022-09-20T02:16:54;8.30;99.90
20680;DHT22;10499;47.494;7.608;2022-09-20T02:19:50;8.50;99.90
20680;DHT22;10499;47.494;7.608;2022-09-20T02:33:32;8.30;99.90
20680;DHT22;10499;47.494;7.608;2022-09-20T02:36:25;8.30;99.90
20680;DHT22;10499;47.494;7.608;2022-09-20T02:38:58;8.30;99.90
20680;DHT22;10499;47.494;7.608;2022-09-20T02:52:50;8.20;99.90
20680;DHT22;10499;47.494;7.608;2022-09-20T02:55:20;8.10;99.90
20680;DHT22;10499;47.494;7.608;2022-09-20T03:14:44;8.00;99.90
20680;DHT22;10499;47.494;7.608;2022-09-20T03:17:25;7.90;99.90
20680;DHT22;10499;47.494;7.608;2022-09-20T03:20:07;7.90;99.90
20680;DHT22;10499;47.494;7.608;2022-09-20T03:25:49;8.00;99.90
20680;DHT22;10499;47.494;7.608;2022-09-20T03:31:36;8.00;99.90
20680;DHT22;10499;47.494;7.608;2022-09-20T03:34:28;8.00;99.90
20680;DHT22;10499;47.494;7.608;2022-09-20T03:42:47;7.90;99.90
20680;DHT22;10499;47.494;7.608;2022-09-20T03:48:05;7.90;99.90
20680;DHT22;10499;47.494;7.608;2022-09-20T03:53:51;7.80;99.90
20680;DHT22;10499;47.494;7.608;2022-09-20T04:04:54;7.70;99.90
20680;DHT22;10499;47.494;7.608;2022-09-20T04:13:12;7.70;99.90
20680;DHT22;10499;47.494;7.608;2022-09-20T04:16:14;7.60;99.90
20680;DHT22;10499;47.494;7.608;2022-09-20T04:21:45;7.60;99.90
20680;DHT22;10499;47.494;7.608;2022-09-20T04:27:04;7.50;99.90
20680;DHT22;10499;47.494;7.608;2022-09-20T04:37:46;7.50;99.90
20680;DHT22;10499;47.494;7.608;2022-09-20T04:40:37;7.50;99.90
20680;DHT22;10499;47.494;7.608;2022-09-20T05:00:20;7.30;99.90
20680;DHT22;10499;47.494;7.608;2022-09-20T05:03:02;7.20;99.90
20680;DHT22;10499;47.494;7.608;2022-09-20T05:14:15;7.30;99.90
20680;DHT22;10499;47.494;7.608;2022-09-20T05:19:55;7.30;99.90
20680;DHT22;10499;47.494;7.608;2022-09-20T05:28:17;7.30;99.90
20680;DHT22;10499;47.494;7.608;2022-09-20T05:30:49;7.30;99.90
20680;DHT22;10499;47.494;7.608;2022-09-20T05:33:46;7.40;99.90
20680;DHT22;10499;47.494;7.608;2022-09-20T05:38:58;7.50;99.90
20680;DHT22;10499;47.494;7.608;2022-09-20T05:44:44;7.60;99.90
20680;DHT22;10499;47.494;7.608;2022-09-20T05:50:18;7.60;99.90
20680;DHT22;10499;47.494;7.608;2022-09-20T05:52:58;7.60;99.90
20680;DHT22;10499;47.494;7.608;2022-09-20T05:55:50;7.70;99.90
20680;DHT22;10499;47.494;7.608;2022-09-20T06:00:59;7.80;99.90
20680;DHT22;10499;47.494;7.608;2022-09-20T06:03:46;7.90;99.90
20680;DHT22;10499;47.494;7.608;2022-09-20T06:12:31;8.20;99.90
20680;DHT22;10499;47.494;7.608;2022-09-20T06:21:12;8.50;99.90
20680;DHT22;10499;47.494;7.608;2022-09-20T06:23:39;8.60;99.90
20680;DHT22;10499;47.494;7.608;2022-09-20T06:26:14;8.60;99.90
20680;DHT22;10499;47.494;7.608;2022-09-20T06:28:45;8.80;99.90
20680;DHT22;10499;47.494;7.608;2022-09-20T06:31:11;8.80;99.90
20680;DHT22;10499;47.494;7.608;2022-09-20T06:33:55;8.80;99.90
20680;DHT22;10499;47.494;7.608;2022-09-20T06:36:29;8.90;99.90
20680;DHT22;10499;47.494;7.608;2022-09-20T06:39:32;9.00;99.90
20680;DHT22;10499;47.494;7.608;2022-09-20T06:42:22;9.10;99.90
20680;DHT22;10499;47.494;7.608;2022-09-20T06:44:48;9.20;99.90
20680;DHT22;10499;47.494;7.608;2022-09-20T06:47:14;9.20;99.90
20680;DHT22;10499;47.494;7.608;2022-09-20T06:49:40;9.40;99.90
20680;DHT22;10499;47.494;7.608;2022-09-20T06:52:14;9.50;99.90
20680;DHT22;10499;47.494;7.608;2022-09-20T06:54:45;9.60;99.90
20680;DHT22;10499;47.494;7.608;2022-09-20T06:57:31;9.60;99.90
20680;DHT22;10499;47.494;7.608;2022-09-20T06:59:58;9.70;99.90
20680;DHT22;10499;47.494;7.608;2022-09-20T07:02:23;9.80;99.90
20680;DHT22;10499;47.494;7.608;2022-09-20T07:04:49;9.90;99.90
20680;DHT22;10499;47.494;7.608;2022-09-20T07:07:18;10.00;99.90
20680;DHT22;10499;47.494;7.608;2022-09-20T07:12:10;10.10;99.90
20680;DHT22;10499;47.494;7.608;2022-09-20T07:14:36;10.20;99.90
20680;DHT22;10499;47.494;7.608;2022-09-20T07:17:02;10.30;99.90
20680;DHT22;10499;47.494;7.608;2022-09-20T07:19:28;10.30;99.90
20680;DHT22;10499;47.494;7.608;2022-09-20T07:21:54;10.40;99.90
20680;DHT22;10499;47.494;7.608;2022-09-20T07:24:19;10.50;99.90
20680;DHT22;10499;47.494;7.608;2022-09-20T07:26:57;10.60;99.90
20680;DHT22;10499;47.494;7.608;2022-09-20T07:29:23;10.70;99.90
20680;DHT22;10499;47.494;7.608;2022-09-20T07:31:48;10.70;99.90
20680;DHT22;10499;47.494;7.608;2022-09-20T07:34:15;10.80;99.90
20680;DHT22;10499;47.494;7.608;2022-09-20T07:36:45;10.90;99.00
20680;DHT22;10499;47.494;7.608;2022-09-20T07:41:37;11.10;98.30
20680;DHT22;10499;47.494;7.608;2022-09-20T07:44:03;11.30;98.40
20680;DHT22;10499;47.494;7.608;2022-09-20T07:46:56;11.50;97.60
20680;DHT22;10499;47.494;7.608;2022-09-20T07:49:23;11.80;96.70
20680;DHT22;10499;47.494;7.608;2022-09-20T07:51:49;12.10;96.20
20680;DHT22;10499;47.494;7.608;2022-09-20T07:54:15;12.50;95.50
20680;DHT22;10499;47.494;7.608;2022-09-20T07:56:42;12.80;94.30
20680;DHT22;10499;47.494;7.608;2022-09-20T07:59:08;13.20;94.00
20680;DHT22;10499;47.494;7.608;2022-09-20T08:01:37;13.70;93.20
20680;DHT22;10499;47.494;7.608;2022-09-20T08:04:04;14.20;92.00
20680;DHT22;10499;47.494;7.608;2022-09-20T08:06:30;15.20;91.20
20680;DHT22;10499;47.494;7.608;2022-09-20T08:08:56;16.60;89.50
20680;DHT22;10499;47.494;7.608;2022-09-20T08:11:23;18.60;81.40
20680;DHT22;10499;47.494;7.608;2022-09-20T08:13:52;22.30;65.50
20680;DHT22;10499;47.494;7.608;2022-09-20T08:16:19;23.70;60.30
20680;DHT22;10499;47.494;7.608;2022-09-20T08:18:46;26.20;54.20
20680;DHT22;10499;47.494;7.608;2022-09-20T08:21:13;27.80;48.20
20680;DHT22;10499;47.494;7.608;2022-09-20T08:23:41;28.60;44.90
20680;DHT22;10499;47.494;7.608;2022-09-20T08:26:09;29.90;41.60
20680;DHT22;10499;47.494;7.608;2022-09-20T08:28:39;31.40;39.90
20680;DHT22;10499;47.494;7.608;2022-09-20T08:31:10;32.40;37.30
20680;DHT22;10499;47.494;7.608;2022-09-20T08:33:39;32.80;35.90
20680;DHT22;10499;47.494;7.608;2022-09-20T08:36:06;32.90;35.40
20680;DHT22;10499;47.494;7.608;2022-09-20T08:38:33;33.60;35.20
20680;DHT22;10499;47.494;7.608;2022-09-20T08:41:28;34.80;33.60
20680;DHT22;10499;47.494;7.608;2022-09-20T08:44:18;35.60;31.40
20680;DHT22;10499;47.494;7.608;2022-09-20T08:47:36;36.20;29.80
20680;DHT22;10499;47.494;7.608;2022-09-20T08:49:37;36.40;29.60
20680;DHT22;10499;47.494;7.608;2022-09-20T08:52:03;36.40;30.00
20680;DHT22;10499;47.494;7.608;2022-09-20T08:54:31;36.20;29.90
20680;DHT22;10499;47.494;7.608;2022-09-20T08:57:01;36.50;30.00
20680;DHT22;10499;47.494;7.608;2022-09-20T08:59:30;36.50;29.80
20680;DHT22;10499;47.494;7.608;2022-09-20T09:01:56;35.90;30.00
20680;DHT22;10499;47.494;7.608;2022-09-20T09:04:34;35.60;31.00
20680;DHT22;10499;47.494;7.608;2022-09-20T09:07:00;35.80;30.90
20680;DHT22;10499;47.494;7.608;2022-09-20T09:09:27;36.30;30.30
20680;DHT22;10499;47.494;7.608;2022-09-20T09:11:55;36.40;30.20
20680;DHT22;10499;47.494;7.608;2022-09-20T09:14:33;36.50;30.00
20680;DHT22;10499;47.494;7.608;2022-09-20T09:17:22;36.20;30.20
20680;DHT22;10499;47.494;7.608;2022-09-20T09:19:49;36.50;29.80
20680;DHT22;10499;47.494;7.608;2022-09-20T09:22:43;37.10;30.20
20680;DHT22;10499;47.494;7.608;2022-09-20T09:30:30;39.20;28.30
20680;DHT22;10499;47.494;7.608;2022-09-20T09:33:27;39.30;28.10
20680;DHT22;10499;47.494;7.608;2022-09-20T09:36:11;40.00;27.40
20680;DHT22;10499;47.494;7.608;2022-09-20T09:38:41;40.10;27.40
20680;DHT22;10499;47.494;7.608;2022-09-20T09:41:23;40.60;27.10
20680;DHT22;10499;47.494;7.608;2022-09-20T09:43:59;40.70;26.50
20680;DHT22;10499;47.494;7.608;2022-09-20T09:46:25;40.10;27.00
20680;DHT22;10499;47.494;7.608;2022-09-20T09:49:30;40.10;28.00
20680;DHT22;10499;47.494;7.608;2022-09-20T09:52:13;40.90;26.80
20680;DHT22;10499;47.494;7.608;2022-09-20T09:54:51;41.40;26.30
20680;DHT22;10499;47.494;7.608;2022-09-20T09:57:45;41.30;26.20
20680;DHT22;10499;47.494;7.608;2022-09-20T10:00:23;42.00;25.80
20680;DHT22;10499;47.494;7.608;2022-09-20T10:17:38;42.20;25.40
20680;DHT22;10499;47.494;7.608;2022-09-20T10:20:25;41.80;25.50
20680;DHT22;10499;47.494;7.608;2022-09-20T10:26:09;43.00;24.90
20680;DHT22;10499;47.494;7.608;2022-09-20T10:42:48;45.20;22.70
20680;DHT22;10499;47.494;7.608;2022-09-20T10:45:55;43.90;23.40
20680;DHT22;10499;47.494;7.608;2022-09-20T10:56:43;44.70;22.70
20680;DHT22;10499;47.494;7.608;2022-09-20T11:02:03;45.00;23.00
20680;DHT22;10499;47.494;7.608;2022-09-20T11:10:24;43.40;23.20
20680;DHT22;10499;47.494;7.608;2022-09-20T11:15:54;44.30;22.70
20680;DHT22;10499;47.494;7.608;2022-09-20T11:21:16;45.80;22.30
20680;DHT22;10499;47.494;7.608;2022-09-20T11:24:04;45.00;22.40
20680;DHT22;10499;47.494;7.608;2022-09-20T11:26:50;44.70;22.90
20680;DHT22;10499;47.494;7.608;2022-09-20T11:29:34;45.40;23.10
20680;DHT22;10499;47.494;7.608;2022-09-20T11:32:15;45.90;22.20
20680;DHT22;10499;47.494;7.608;2022-09-20T11:34:53;46.60;22.20
20680;DHT22;10499;47.494;7.608;2022-09-20T11:37:22;46.80;22.10
20680;DHT22;10499;47.494;7.608;2022-09-20T11:39:53;47.10;21.60
20680;DHT22;10499;47.494;7.608;2022-09-20T11:42:27;47.60;21.70
20680;DHT22;10499;47.494;7.608;2022-09-20T11:44:53;47.60;21.10
20680;DHT22;10499;47.494;7.608;2022-09-20T11:47:23;47.00;21.00
20680;DHT22;10499;47.494;7.608;2022-09-20T11:55:27;43.90;23.80
20680;DHT22;10499;47.494;7.608;2022-09-20T11:58:09;44.90;23.20
20680;DHT22;10499;47.494;7.608;2022-09-20T12:00:43;44.90;23.10
20680;DHT22;10499;47.494;7.608;2022-09-20T12:03:36;44.80;22.50
20680;DHT22;10499;47.494;7.608;2022-09-20T12:06:22;45.10;21.90
20680;DHT22;10499;47.494;7.608;2022-09-20T12:08:49;45.00;22.50
20680;DHT22;10499;47.494;7.608;2022-09-20T12:11:26;45.60;21.70
20680;DHT22;10499;47.494;7.608;2022-09-20T12:14:06;45.90;21.30
20680;DHT22;10499;47.494;7.608;2022-09-20T12:16:37;45.50;22.20
20680;DHT22;10499;47.494;7.608;2022-09-20T12:19:04;45.70;22.10
20680;DHT22;10499;47.494;7.608;2022-09-20T12:24:30;46.20;21.50
20680;DHT22;10499;47.494;7.608;2022-09-20T12:32:39;42.90;23.30
20680;DHT22;10499;47.494;7.608;2022-09-20T12:36:11;39.90;24.00
20680;DHT22;10499;47.494;7.608;2022-09-20T12:41:11;38.40;26.00
20680;DHT22;10499;47.494;7.608;2022-09-20T12:43:51;40.70;24.10
20680;DHT22;10499;47.494;7.608;2022-09-20T12:46:33;40.00;23.20
20680;DHT22;10499;47.494;7.608;2022-09-20T12:52:19;33.60;27.70
20680;DHT22;10499;47.494;7.608;2022-09-20T12:55:04;31.80;29.70
20680;DHT22;10499;47.494;7.608;2022-09-20T12:57:31;31.50;30.00
20680;DHT22;10499;47.494;7.608;2022-09-20T12:59:59;30.30;31.70
20680;DHT22;10499;47.494;7.608;2022-09-20T13:05:43;34.90;27.70
20680;DHT22;10499;47.494;7.608;2022-09-20T13:08:16;37.30;26.60
20680;DHT22;10499;47.494;7.608;2022-09-20T13:10:48;36.80;25.30
20680;DHT22;10499;47.494;7.608;2022-09-20T13:13:26;33.90;27.60
20680;DHT22;10499;47.494;7.608;2022-09-20T13:15:53;31.40;30.10
20680;DHT22;10499;47.494;7.608;2022-09-20T13:18:20;29.60;32.10
20680;DHT22;10499;47.494;7.608;2022-09-20T13:20:47;30.90;32.20
20680;DHT22;10499;47.494;7.608;2022-09-20T13:23:43;33.50;29.90
20680;DHT22;10499;47.494;7.608;2022-09-20T13:26:11;35.50;27.60
20680;DHT22;10499;47.494;7.608;2022-09-20T13:28:46;34.90;27.20
20680;DHT22;10499;47.494;7.608;2022-09-20T13:33:45;32.30;27.50
20680;DHT22;10499;47.494;7.608;2022-09-20T13:36:10;30.10;29.50
20680;DHT22;10499;47.494;7.608;2022-09-20T13:38:36;29.20;30.60
20680;DHT22;10499;47.494;7.608;2022-09-20T13:41:07;28.20;32.00
20680;DHT22;10499;47.494;7.608;2022-09-20T13:43:42;27.30;33.10
20680;DHT22;10499;47.494;7.608;2022-09-20T13:46:14;26.90;34.10
20680;DHT22;10499;47.494;7.608;2022-09-20T13:48:41;28.00;33.00
20680;DHT22;10499;47.494;7.608;2022-09-20T13:51:24;28.90;31.10
20680;DHT22;10499;47.494;7.608;2022-09-20T13:53:50;29.30;30.40
20680;DHT22;10499;47.494;7.608;2022-09-20T13:56:22;29.50;30.40
20680;DHT22;10499;47.494;7.608;2022-09-20T13:58:50;29.70;30.50
20680;DHT22;10499;47.494;7.608;2022-09-20T14:01:31;29.50;30.40
20680;DHT22;10499;47.494;7.608;2022-09-20T14:04:06;29.50;30.90
20680;DHT22;10499;47.494;7.608;2022-09-20T14:06:32;29.10;31.10
20680;DHT22;10499;47.494;7.608;2022-09-20T14:09:00;27.80;32.60
20680;DHT22;10499;47.494;7.608;2022-09-20T14:11:30;26.90;33.70
20680;DHT22;10499;47.494;7.608;2022-09-20T14:14:01;26.40;34.70
20680;DHT22;10499;47.494;7.608;2022-09-20T14:16:47;26.30;34.80
20680;DHT22;10499;47.494;7.608;2022-09-20T14:19:16;26.40;35.50
20680;DHT22;10499;47.494;7.608;2022-09-20T14:21:43;26.60;34.70
20680;DHT22;10499;47.494;7.608;2022-09-20T14:26:43;26.90;35.20
20680;DHT22;10499;47.494;7.608;2022-09-20T14:32:01;26.80;34.80
20680;DHT22;10499;47.494;7.608;2022-09-20T14:34:29;26.80;34.40
20680;DHT22;10499;47.494;7.608;2022-09-20T14:37:11;26.80;34.70
20680;DHT22;10499;47.494;7.608;2022-09-20T14:39:49;26.80;34.70
20680;DHT22;10499;47.494;7.608;2022-09-20T14:42:38;26.90;33.90
20680;DHT22;10499;47.494;7.608;2022-09-20T14:45:06;27.00;34.70
20680;DHT22;10499;47.494;7.608;2022-09-20T14:47:38;27.10;34.70
20680;DHT22;10499;47.494;7.608;2022-09-20T14:50:21;27.10;34.60
20680;DHT22;10499;47.494;7.608;2022-09-20T14:53:19;26.70;35.50
20680;DHT22;10499;47.494;7.608;2022-09-20T14:56:08;26.10;35.10
20680;DHT22;10499;47.494;7.608;2022-09-20T15:01:27;25.10;36.80
20680;DHT22;10499;47.494;7.608;2022-09-20T15:03:52;24.60;38.00
20680;DHT22;10499;47.494;7.608;2022-09-20T15:06:18;24.00;38.50
20680;DHT22;10499;47.494;7.608;2022-09-20T15:08:44;23.60;39.40
20680;DHT22;10499;47.494;7.608;2022-09-20T15:11:14;23.50;40.00
20680;DHT22;10499;47.494;7.608;2022-09-20T15:13:41;23.60;39.60
20680;DHT22;10499;47.494;7.608;2022-09-20T15:16:07;23.90;40.10
20680;DHT22;10499;47.494;7.608;2022-09-20T15:18:40;24.10;40.10
20680;DHT22;10499;47.494;7.608;2022-09-20T15:21:07;24.20;39.60
20680;DHT22;10499;47.494;7.608;2022-09-20T15:23:34;24.20;38.50
20680;DHT22;10499;47.494;7.608;2022-09-20T15:26:00;24.30;38.50
20680;DHT22;10499;47.494;7.608;2022-09-20T15:28:26;24.10;38.50
20680;DHT22;10499;47.494;7.608;2022-09-20T15:30:52;24.00;38.30
20680;DHT22;10499;47.494;7.608;2022-09-20T15:33:19;24.00;38.70
20680;DHT22;10499;47.494;7.608;2022-09-20T15:35:46;23.90;39.30
20680;DHT22;10499;47.494;7.608;2022-09-20T15:38:19;23.60;39.40
20680;DHT22;10499;47.494;7.608;2022-09-20T15:40:46;23.50;39.80
20680;DHT22;10499;47.494;7.608;2022-09-20T15:43:15;23.40;39.70
20680;DHT22;10499;47.494;7.608;2022-09-20T15:45:59;23.40;40.20
20680;DHT22;10499;47.494;7.608;2022-09-20T15:48:27;23.50;41.00
20680;DHT22;10499;47.494;7.608;2022-09-20T15:51:00;23.40;40.30
20680;DHT22;10499;47.494;7.608;2022-09-20T15:53:28;23.40;40.40
20680;DHT22;10499;47.494;7.608;2022-09-20T15:55:56;23.30;40.70
20680;DHT22;10499;47.494;7.608;2022-09-20T15:58:23;23.10;40.80
20680;DHT22;10499;47.494;7.608;2022-09-20T16:00:50;23.00;41.00
20680;DHT22;10499;47.494;7.608;2022-09-20T16:03:15;22.90;40.90
20680;DHT22;10499;47.494;7.608;2022-09-20T16:05:41;22.90;41.40
20680;DHT22;10499;47.494;7.608;2022-09-20T16:08:07;22.90;41.80
20680;DHT22;10499;47.494;7.608;2022-09-20T16:10:33;22.90;41.70
20680;DHT22;10499;47.494;7.608;2022-09-20T16:12:59;22.80;41.20
20680;DHT22;10499;47.494;7.608;2022-09-20T16:15:24;22.60;41.30
20680;DHT22;10499;47.494;7.608;2022-09-20T16:17:50;22.50;41.50
20680;DHT22;10499;47.494;7.608;2022-09-20T16:20:45;22.20;41.70
20680;DHT22;10499;47.494;7.608;2022-09-20T16:23:12;22.10;41.60
20680;DHT22;10499;47.494;7.608;2022-09-20T16:25:38;22.00;41.90
20680;DHT22;10499;47.494;7.608;2022-09-20T16:28:03;21.90;42.20
20680;DHT22;10499;47.494;7.608;2022-09-20T16:30:29;21.90;42.80
20680;DHT22;10499;47.494;7.608;2022-09-20T16:32:54;21.80;43.70
20680;DHT22;10499;47.494;7.608;2022-09-20T16:35:21;21.80;43.90
20680;DHT22;10499;47.494;7.608;2022-09-20T16:37:46;21.80;43.70
20680;DHT22;10499;47.494;7.608;2022-09-20T16:40:12;21.70;43.80
20680;DHT22;10499;47.494;7.608;2022-09-20T16:42:38;21.50;43.80
20680;DHT22;10499;47.494;7.608;2022-09-20T16:45:04;21.30;44.70
20680;DHT22;10499;47.494;7.608;2022-09-20T16:47:31;21.00;45.10
20680;DHT22;10499;47.494;7.608;2022-09-20T16:49:56;20.70;45.70
20680;DHT22;10499;47.494;7.608;2022-09-20T16:52:22;20.50;46.40
20680;DHT22;10499;47.494;7.608;2022-09-20T16:54:50;20.10;47.10
20680;DHT22;10499;47.494;7.608;2022-09-20T16:57:16;19.80;47.90
20680;DHT22;10499;47.494;7.608;2022-09-20T16:59:42;19.60;48.20
20680;DHT22;10499;47.494;7.608;2022-09-20T17:02:12;19.30;48.90
20680;DHT22;10499;47.494;7.608;2022-09-20T17:04:37;19.20;49.60
20680;DHT22;10499;47.494;7.608;2022-09-20T17:07:03;18.90;50.20
20680;DHT22;10499;47.494;7.608;2022-09-20T17:09:28;18.80;51.20
20680;DHT22;10499;47.494;7.608;2022-09-20T17:11:54;18.70;51.90
20680;DHT22;10499;47.494;7.608;2022-09-20T17:14:20;18.50;52.60
20680;DHT22;10499;47.494;7.608;2022-09-20T17:16:46;18.20;53.80
20680;DHT22;10499;47.494;7.608;2022-09-20T17:19:17;18.10;54.50
20680;DHT22;10499;47.494;7.608;2022-09-20T17:21:44;18.00;55.40
20680;DHT22;10499;47.494;7.608;2022-09-20T17:24:15;17.70;56.30
20680;DHT22;10499;47.494;7.608;2022-09-20T17:26:43;17.60;57.20
20680;DHT22;10499;47.494;7.608;2022-09-20T17:29:11;17.30;57.70
20680;DHT22;10499;47.494;7.608;2022-09-20T17:31:40;17.20;58.30
20680;DHT22;10499;47.494;7.608;2022-09-20T17:34:09;17.00;59.20
20680;DHT22;10499;47.494;7.608;2022-09-20T17:36:40;16.90;60.10
20680;DHT22;10499;47.494;7.608;2022-09-20T17:39:07;16.70;61.40
20680;DHT22;10499;47.494;7.608;2022-09-20T17:41:38;16.60;63.10
20680;DHT22;10499;47.494;7.608;2022-09-20T17:44:04;16.50;63.60
20680;DHT22;10499;47.494;7.608;2022-09-20T17:46:35;16.30;64.20
20680;DHT22;10499;47.494;7.608;2022-09-20T17:49:04;16.20;64.40
20680;DHT22;10499;47.494;7.608;2022-09-20T17:51:38;16.10;64.80
20680;DHT22;10499;47.494;7.608;2022-09-20T17:54:04;16.00;65.40
20680;DHT22;10499;47.494;7.608;2022-09-20T17:56:31;15.80;65.50
20680;DHT22;10499;47.494;7.608;2022-09-20T17:58:57;15.70;65.40
20680;DHT22;10499;47.494;7.608;2022-09-20T18:01:23;15.70;66.10
20680;DHT22;10499;47.494;7.608;2022-09-20T18:03:50;15.60;65.90
20680;DHT22;10499;47.494;7.608;2022-09-20T18:06:27;15.50;65.70
20680;DHT22;10499;47.494;7.608;2022-09-20T18:08:58;15.40;66.30
20680;DHT22;10499;47.494;7.608;2022-09-20T18:11:33;15.30;66.00
20680;DHT22;10499;47.494;7.608;2022-09-20T18:14:00;15.20;66.50
20680;DHT22;10499;47.494;7.608;2022-09-20T18:16:26;15.20;67.60
20680;DHT22;10499;47.494;7.608;2022-09-20T18:18:52;15.10;68.20
20680;DHT22;10499;47.494;7.608;2022-09-20T18:21:23;15.00;68.50
20680;DHT22;10499;47.494;7.608;2022-09-20T18:23:49;14.80;69.90
20680;DHT22;10499;47.494;7.608;2022-09-20T18:26:18;14.70;70.60
20680;DHT22;10499;47.494;7.608;2022-09-20T18:31:34;14.40;71.70
20680;DHT22;10499;47.494;7.608;2022-09-20T18:34:05;14.30;72.20
20680;DHT22;10499;47.494;7.608;2022-09-20T18:36:35;14.20;72.40
20680;DHT22;10499;47.494;7.608;2022-09-20T18:39:02;14.10;73.00
20680;DHT22;10499;47.494;7.608;2022-09-20T18:41:29;14.10;73.70
20680;DHT22;10499;47.494;7.608;2022-09-20T18:43:59;14.00;75.10
20680;DHT22;10499;47.494;7.608;2022-09-20T18:46:27;14.00;76.20
20680;DHT22;10499;47.494;7.608;2022-09-20T18:48:56;13.90;76.10
20680;DHT22;10499;47.494;7.608;2022-09-20T18:51:23;13.90;75.90
20680;DHT22;10499;47.494;7.608;2022-09-20T18:53:50;13.80;76.10
20680;DHT22;10499;47.494;7.608;2022-09-20T18:56:28;13.80;76.80
20680;DHT22;10499;47.494;7.608;2022-09-20T18:58:59;13.70;77.80
20680;DHT22;10499;47.494;7.608;2022-09-20T19:04:50;13.60;78.70
20680;DHT22;10499;47.494;7.608;2022-09-20T19:07:35;13.60;78.60
20680;DHT22;10499;47.494;7.608;2022-09-20T19:13:04;13.40;79.20
20680;DHT22;10499;47.494;7.608;2022-09-20T19:20:56;13.20;79.60
20680;DHT22;10499;47.494;7.608;2022-09-20T19:26:29;13.10;80.80
20680;DHT22;10499;47.494;7.608;2022-09-20T19:28:57;13.00;81.90
20680;DHT22;10499;47.494;7.608;2022-09-20T19:31:29;13.00;83.10
20680;DHT22;10499;47.494;7.608;2022-09-20T19:33:58;12.90;83.80
20680;DHT22;10499;47.494;7.608;2022-09-20T19:42:52;12.80;86.60
20680;DHT22;10499;47.494;7.608;2022-09-20T19:50:49;12.50;87.30
20680;DHT22;10499;47.494;7.608;2022-09-20T19:53:18;12.40;87.40
20680;DHT22;10499;47.494;7.608;2022-09-20T19:55:50;12.40;87.00
20680;DHT22;10499;47.494;7.608;2022-09-20T19:58:17;12.40;87.20
20680;DHT22;10499;47.494;7.608;2022-09-20T20:00:44;12.40;86.40
20680;DHT22;10499;47.494;7.608;2022-09-20T20:03:13;12.50;85.70
20680;DHT22;10499;47.494;7.608;2022-09-20T20:05:47;12.50;87.50
20680;DHT22;10499;47.494;7.608;2022-09-20T20:08:42;12.50;87.50
20680;DHT22;10499;47.494;7.608;2022-09-20T20:25:31;12.40;87.20
20680;DHT22;10499;47.494;7.608;2022-09-20T20:27:59;12.40;87.60
20680;DHT22;10499;47.494;7.608;2022-09-20T20:30:25;12.40;86.90
20680;DHT22;10499;47.494;7.608;2022-09-20T20:32:57;12.40;86.90
20680;DHT22;10499;47.494;7.608;2022-09-20T20:35:23;12.40;86.40
20680;DHT22;10499;47.494;7.608;2022-09-20T20:37:50;12.30;86.60
20680;DHT22;10499;47.494;7.608;2022-09-20T20:40:16;12.30;86.90
20680;DHT22;10499;47.494;7.608;2022-09-20T20:42:42;12.40;86.20
20680;DHT22;10499;47.494;7.608;2022-09-20T20:45:08;12.30;85.90
20680;DHT22;10499;47.494;7.608;2022-09-20T20:47:34;12.30;86.50
20680;DHT22;10499;47.494;7.608;2022-09-20T20:50:00;12.40;86.60
20680;DHT22;10499;47.494;7.608;2022-09-20T20:52:25;12.40;86.70
20680;DHT22;10499;47.494;7.608;2022-09-20T20:54:51;12.50;88.00
20680;DHT22;10499;47.494;7.608;2022-09-20T20:57:17;12.60;88.60
20680;DHT22;10499;47.494;7.608;2022-09-20T20:59:43;12.60;88.80
20680;DHT22;10499;47.494;7.608;2022-09-20T21:02:09;12.70;89.30
20680;DHT22;10499;47.494;7.608;2022-09-20T21:04:35;12.70;88.50
20680;DHT22;10499;47.494;7.608;2022-09-20T21:07:02;12.70;87.40
20680;DHT22;10499;47.494;7.608;2022-09-20T21:09:28;12.60;87.20
20680;DHT22;10499;47.494;7.608;2022-09-20T21:11:54;12.50;86.10
20680;DHT22;10499;47.494;7.608;2022-09-20T21:14:19;12.50;86.00
20680;DHT22;10499;47.494;7.608;2022-09-20T21:16:45;12.40;86.40
20680;DHT22;10499;47.494;7.608;2022-09-20T21:19:13;12.40;86.90
20680;DHT22;10499;47.494;7.608;2022-09-20T21:21:41;12.40;87.30
20680;DHT22;10499;47.494;7.608;2022-09-20T21:24:09;12.40;87.20
20680;DHT22;10499;47.494;7.608;2022-09-20T21:26:36;12.40;87.90
20680;DHT22;10499;47.494;7.608;2022-09-20T21:29:07;12.40;87.20
20680;DHT22;10499;47.494;7.608;2022-09-20T21:31:40;12.50;88.00
20680;DHT22;10499;47.494;7.608;2022-09-20T21:34:07;12.50;87.00
20680;DHT22;10499;47.494;7.608;2022-09-20T21:36:34;12.60;87.10